Map

Track Data

SID SEASON NUMBER BASIN SUBBASIN NAME ISO_TIME NATURE LAT LON WMO_WIND WMO_PRES WMO_AGENCY TRACK_TYPE DIST2LAND LANDFALL IFLAG USA_AGENCY USA_ATCF_ID USA_LAT USA_LON USA_RECORD USA_STATUS USA_WIND USA_PRES USA_SSHS USA_R34_NE USA_R34_SE USA_R34_SW USA_R34_NW USA_R50_NE USA_R50_SE USA_R50_SW USA_R50_NW USA_R64_NE USA_R64_SE USA_R64_SW USA_R64_NW USA_POCI USA_ROCI USA_RMW USA_EYE TOKYO_LAT TOKYO_LON TOKYO_GRADE TOKYO_WIND TOKYO_PRES TOKYO_R50_DIR TOKYO_R50_LONG TOKYO_R50_SHORT TOKYO_R30_DIR TOKYO_R30_LONG TOKYO_R30_SHORT TOKYO_LAND CMA_LAT CMA_LON CMA_CAT CMA_WIND CMA_PRES HKO_LAT HKO_LON HKO_CAT HKO_WIND HKO_PRES NEWDELHI_LAT NEWDELHI_LON NEWDELHI_GRADE NEWDELHI_WIND NEWDELHI_PRES NEWDELHI_CI NEWDELHI_DP NEWDELHI_POCI REUNION_LAT REUNION_LON REUNION_TYPE REUNION_WIND REUNION_PRES REUNION_TNUM REUNION_CI REUNION_RMW REUNION_R34_NE REUNION_R34_SE REUNION_R34_SW REUNION_R34_NW REUNION_R50_NE REUNION_R50_SE REUNION_R50_SW REUNION_R50_NW REUNION_R64_NE REUNION_R64_SE REUNION_R64_SW REUNION_R64_NW BOM_LAT BOM_LON BOM_TYPE BOM_WIND BOM_PRES BOM_TNUM BOM_CI BOM_RMW BOM_R34_NE BOM_R34_SE BOM_R34_SW BOM_R34_NW BOM_R50_NE BOM_R50_SE BOM_R50_SW BOM_R50_NW BOM_R64_NE BOM_R64_SE BOM_R64_SW BOM_R64_NW BOM_ROCI BOM_POCI BOM_EYE BOM_POS_METHOD BOM_PRES_METHOD NADI_LAT NADI_LON NADI_CAT NADI_WIND NADI_PRES WELLINGTON_LAT WELLINGTON_LON WELLINGTON_WIND WELLINGTON_PRES DS824_LAT DS824_LON DS824_STAGE DS824_WIND DS824_PRES TD9636_LAT TD9636_LON TD9636_STAGE TD9636_WIND TD9636_PRES TD9635_LAT TD9635_LON TD9635_WIND TD9635_PRES TD9635_ROCI NEUMANN_LAT NEUMANN_LON NEUMANN_CLASS NEUMANN_WIND NEUMANN_PRES MLC_LAT MLC_LON MLC_CLASS MLC_WIND MLC_PRES USA_GUST BOM_GUST BOM_GUST_PER REUNION_GUST REUNION_GUST_PER USA_SEAHGT USA_SEARAD_NE USA_SEARAD_SE USA_SEARAD_SW USA_SEARAD_NW STORM_SPEED STORM_DIR
1995294N05163 1995 84 WP MM ZACK 1995-10-21 00:00:00 NR 4.80000 163.200 main 1472 1429 O_____________ jtwc_wp WP281995 4.80000 163.200 15 -1 16 277
1995294N05163 1995 84 WP MM ZACK 1995-10-21 03:00:00 NR 4.90275 162.390 main 1429 1390 P_____________ WP281995 4.90275 162.390 15 -1 16 277
1995294N05163 1995 84 WP MM ZACK 1995-10-21 06:00:00 NR 5.00000 161.600 main 1390 1352 O_____________ jtwc_wp WP281995 5.00000 161.600 15 -1 16 277
1995294N05163 1995 84 WP MM ZACK 1995-10-21 09:00:00 NR 5.09228 160.830 main 1344 1296 P_____________ WP281995 5.09228 160.830 15 -1 16 277
1995294N05163 1995 84 WP MM ZACK 1995-10-21 12:00:00 NR 5.20000 160.000 main 1296 1245 O_____________ jtwc_wp WP281995 5.20000 160.000 15 -1 18 278
1995294N05163 1995 84 WP MM ZACK 1995-10-21 15:00:00 NR 5.34997 159.030 main 1238 1196 P_____________ WP281995 5.34997 159.030 15 -1 20 279
1995294N05163 1995 84 WP MM ZACK 1995-10-21 18:00:00 NR 5.50000 158.000 main 1190 1147 O_____________ jtwc_wp WP281995 5.50000 158.000 15 -1 20 277
1995294N05163 1995 84 WP MM ZACK 1995-10-21 21:00:00 NR 5.60733 157.000 main 1141 1100 P_____________ WP281995 5.60733 157.000 15 -1 20 276
1995294N05163 1995 84 WP MM ZACK 1995-10-22 00:00:00 NR 5.70000 156.000 main 1095 1060 O_____________ jtwc_wp WP281995 5.70000 156.000 15 -1 20 276
1995294N05163 1995 84 WP MM ZACK 1995-10-22 03:00:00 NR 5.79982 155.000 main 1055 1027 P_____________ WP281995 5.79982 155.000 15 -1 20 276
1995294N05163 1995 84 WP MM ZACK 1995-10-22 06:00:00 NR 5.90000 154.000 main 1023 1005 O_____________ jtwc_wp WP281995 5.90000 154.000 15 -1 20 276
1995294N05163 1995 84 WP MM ZACK 1995-10-22 09:00:00 NR 5.99232 153.000 main 1002 989 P_____________ WP281995 5.99232 153.000 17 -1 20 276
1995294N05163 1995 84 WP MM ZACK 1995-10-22 12:00:00 NR 6.10000 152.000 main 993 989 O_____________ jtwc_wp WP281995 6.10000 152.000 20 -1 20 277
1995294N05163 1995 84 WP MM ZACK 1995-10-22 15:00:00 NR 6.23485 150.992 main 997 994 P_____________ WP281995 6.23485 150.992 20 -1 20 279
1995294N05163 1995 84 WP MM ZACK 1995-10-22 18:00:00 NR 6.40000 150.000 main 995 989 O_____________ jtwc_wp WP281995 6.40000 150.000 20 -1 20 282
1995294N05163 1995 84 WP MM ZACK 1995-10-22 21:00:00 NR 6.64493 149.013 main 991 991 P_____________ WP281995 6.64493 149.013 20 -1 19 282
1995294N05163 1995 84 WP MM ZACK 1995-10-23 00:00:00 NR 6.80000 148.100 main 1000 986 O_____________ jtwc_wp WP281995 6.80000 148.100 20 -1 17 272
1995294N05163 1995 84 WP MM ZACK 1995-10-23 03:00:00 NR 6.70224 147.320 main 986 963 P_____________ WP281995 6.70224 147.320 20 -1 15 259
1995294N05163 1995 84 WP MM ZACK 1995-10-23 06:00:00 NR 6.50000 146.600 main 963 952 O_____________ jtwc_wp WP281995 6.50000 146.600 20 -1 15 256
1995294N05163 1995 84 WP MM ZACK 1995-10-23 09:00:00 NR 6.34239 145.850 main 944 939 P_____________ WP281995 6.34239 145.850 22 -1 15 259
1995294N05163 1995 84 WP MM ZACK 1995-10-23 12:00:00 NR 6.20000 145.100 main 944 940 O_____________ jtwc_wp WP281995 6.20000 145.100 25 -1 15 259
1995294N05163 1995 84 WP MM ZACK 1995-10-23 15:00:00 NR 6.06243 144.342 main 953 943 P_____________ WP281995 6.06243 144.342 25 -1 15 262
1995294N05163 1995 84 WP MM ZACK 1995-10-23 18:00:00 NR 6.00000 143.600 main 967 967 O_____________ jtwc_wp WP281995 6.00000 143.600 25 -1 15 271
1995294N05163 1995 84 WP MM ZACK 1995-10-23 21:00:00 NR 6.07746 142.870 main 991 977 P_____________ WP281995 6.07746 142.870 25 -1 14 278
1995294N05163 1995 84 WP MM ZACK 1995-10-24 00:00:00 NR 6.20000 142.200 main 977 956 O_____________ jtwc_wp WP281995 6.20000 142.200 25 -1 13 278
1995294N05163 1995 84 WP MM ZACK 1995-10-24 03:00:00 NR 6.24239 141.620 main 952 942 P_____________ WP281995 6.24239 141.620 25 -1 11 275
1995294N05163 1995 84 WP MM ZACK 1995-10-24 06:00:00 NR 6.30000 141.100 main 942 934 O_____________ jtwc_wp WP281995 6.30000 141.100 25 -1 10 281
1995294N05163 1995 84 WP MM ZACK 1995-10-24 09:00:00 NR 6.43493 140.593 main 935 935 P_____________ WP281995 6.43493 140.593 25 -1 10 287
1995294N05163 1995 84 WP MM ZACK 1995-10-24 12:00:00 NR 6.60000 140.100 main 942 935 O_____________ jtwc_wp WP281995 6.60000 140.100 25 -1 10 288
1995294N05163 1995 84 WP MM ZACK 1995-10-24 15:00:00 NR 6.74995 139.600 main 935 931 P_____________ WP281995 6.74995 139.600 25 -1 10 287
1995294N05163 1995 84 WP MM ZACK 1995-10-24 18:00:00 NR 6.90000 139.100 main 933 924 O_____________ jtwc_wp WP281995 6.90000 139.100 25 -1 10 287
1995294N05163 1995 84 WP MM ZACK 1995-10-24 21:00:00 NR 7.05747 138.593 main 934 927 P_____________ WP281995 7.05747 138.593 25 -1 12 290
1995294N05163 1995 84 WP MM ZACK 1995-10-25 00:00:00 TS 7.31429 137.929 1008 tokyo main 932 932 OOOO__________ jtwc_wp WP281995 7.20000 138.100 25 -1 7.20000 137.500 2 1008 0 0 0 7.20000 137.000 0 19 1008 8.00000 138.600 TD 25 1005 12 293
1995294N05163 1995 84 WP MM ZACK 1995-10-25 03:00:00 TS 7.53101 137.469 main 942 940 PPPP__________ WP281995 7.29991 137.650 27 -1 7.37004 137.300 2 1007 0 0 7.37512 136.583 0 21 1006 8.31008 138.160 TD 25 1005 10 295
1995294N05163 1995 84 WP MM ZACK 1995-10-25 06:00:00 TS 7.72308 137.062 1006 tokyo main 955 954 OOOO__________ jtwc_wp WP281995 7.40000 137.200 30 -1 7.50000 137.100 2 1006 0 0 0 7.50000 136.200 1 23 1004 8.60000 137.700 TD 25 1005 9 294
1995294N05163 1995 84 WP MM ZACK 1995-10-25 09:00:00 TS 7.87932 136.665 main 971 967 PPPP__________ WP281995 7.55749 136.700 30 -1 7.56493 136.887 2 1006 0 0 7.54989 135.865 1 26 1002 8.84496 137.208 TD 27 1002 8 287
1995294N05163 1995 84 WP MM ZACK 1995-10-25 12:00:00 TS 7.97500 136.250 1006 tokyo main 977 975 OOOO__________ jtwc_wp WP281995 7.70000 136.200 30 -1 7.60000 136.600 2 1006 0 0 0 7.60000 135.500 1 29 1000 9.00000 136.700 TD 30 1000 9 281
1995294N05163 1995 84 WP MM ZACK 1995-10-25 15:00:00 TS 8.04309 135.788 main 975 960 PPPP__________ WP281995 7.75743 135.742 30 -1 7.62745 136.202 2 1005 0 0 7.75004 135.015 1 29 1000 9.03746 136.192 TD 30 1000 10 278
1995294N05163 1995 84 WP MM ZACK 1995-10-25 18:00:00 TS 8.10000 135.300 1004 tokyo main 960 905 OOOO__________ jtwc_wp WP281995 7.80000 135.300 30 -1 7.70000 135.700 2 1004 0 0 0 7.90000 134.500 1 29 1000 9.00000 135.700 TD 30 1000 10 277
1995294N05163 1995 84 WP MM ZACK 1995-10-25 21:00:00 TS 8.16939 134.792 main 905 850 PPPP__________ WP281995 7.88500 134.835 30 -1 7.88514 135.085 2 1005 0 0 7.95752 134.005 1 29 1000 8.94992 135.242 TD 30 1000 10 279
1995294N05163 1995 84 WP MM ZACK 1995-10-26 00:00:00 TS 8.25000 134.325 1006 tokyo main 851 818 OOOO__________ jtwc_wp WP281995 8.00000 134.400 30 -1 8.10000 134.500 2 1006 0 0 0 8.00000 133.600 1 29 1000 8.90000 134.800 TD 30 1000 8 282
1995294N05163 1995 84 WP MM ZACK 1995-10-26 03:00:00 TS 8.33677 133.971 main 818 786 PPPP__________ WP281995 8.13491 134.042 32 -1 8.25733 134.120 2 1005 0 0 8.06990 133.370 1 29 1000 8.88495 134.350 TD 30 1000 7 287
1995294N05163 1995 84 WP MM ZACK 1995-10-26 06:00:00 TS 8.45000 133.650 1004 tokyo main 787 744 OOOO__________ jtwc_wp WP281995 8.30000 133.700 35 0 8.40000 133.800 2 1004 0 0 0 8.20000 133.200 1 29 1000 8.90000 133.900 TD 30 1000 7 291
1995294N05163 1995 84 WP MM ZACK 1995-10-26 09:00:00 TS 8.59745 133.290 main 744 704 PPPP__________ WP281995 8.48496 133.315 35 0 8.54246 133.415 2 1003 0 0 8.43492 132.987 1 29 1000 8.92747 133.442 TD 30 1000 8 294
1995294N05163 1995 84 WP MM ZACK 1995-10-26 12:00:00 TS 8.77500 132.900 1002 tokyo main 704 663 OOOO__________ jtwc_wp WP281995 8.70000 132.900 35 0 8.70000 133.000 2 1002 0 0 0 8.70000 132.700 1 29 1000 9.00000 133.000 TD 30 1000 9 294
1995294N05163 1995 84 WP MM ZACK 1995-10-26 15:00:00 TS 8.95807 132.479 main 665 625 PPPP__________ WP281995 8.93494 132.465 35 0 8.87742 132.572 2 1001 0 0 8.90006 132.272 1 29 1000 9.11988 132.607 TD 30 1000 10 295
1995294N05163 1995 84 WP MM ZACK 1995-10-26 18:00:00 TS 9.17500 132.025 1000 tokyo main 617 582 OOOO__________ jtwc_wp WP281995 9.20000 132.000 35 0 9.10000 132.100 2 1000 0 0 0 9.10000 131.800 1 29 1000 9.30000 132.200 TD 30 1000 10 299
1995294N05163 1995 84 WP MM ZACK 1995-10-26 21:00:00 TS 9.45174 131.567 main 585 536 PPPP__________ WP281995 9.52235 131.530 35 0 9.39995 131.573 2 998 0 0 9.34231 131.422 1 31 998 9.54234 131.745 TD 32 998 11 300
1995294N05163 1995 84 WP MM ZACK 1995-10-27 00:00:00 TS 9.72500 131.050 35 996 tokyo main 536 477 OOOO__________ jtwc_wp WP281995 9.80000 131.000 35 0 9.70000 131.000 3 35 996 0 9 90 90 0 9.60000 131.000 2 34 996 9.80000 131.200 TS 35 996 12 294
1995294N05163 1995 84 WP MM ZACK 1995-10-27 03:00:00 TS 9.94056 130.444 main 466 407 PPPP__________ WP281995 9.92990 130.387 37 0 9.92989 130.415 3 40 994 0 9 105 105 9.87249 130.438 2 36 994 10.0300 130.538 TS 37 994 13 287
1995294N05163 1995 84 WP MM ZACK 1995-10-27 06:00:00 TS 10.1000 129.775 45 992 tokyo main 407 337 OOOO__________ jtwc_wp WP281995 10.0000 129.700 40 0 10.1000 129.800 3 45 992 0 9 120 120 0 10.1000 129.800 2 38 992 10.2000 129.800 TS 40 992 14 281
1995294N05163 1995 84 WP MM ZACK 1995-10-27 09:00:00 TS 10.2118 129.084 main 337 270 PPPP__________ WP281995 10.1075 128.950 45 0 10.2298 129.172 3 47 991 0 9 120 120 10.2373 129.172 2 41 991 10.2725 129.042 TS 42 991 14 277
1995294N05163 1995 84 WP MM ZACK 1995-10-27 12:00:00 TS 10.2750 128.375 50 990 tokyo main 270 205 OOOO__________ jtwc_wp WP281995 10.2000 128.200 50 0 10.3000 128.500 4 50 990 0 9 120 120 0 10.3000 128.500 2 44 990 10.3000 128.300 TS 45 990 14 274
1995294N05163 1995 84 WP MM ZACK 1995-10-27 15:00:00 TS 10.2999 127.667 main 205 141 PPPP__________ WP281995 10.2497 127.550 55 0 10.3001 127.742 4 52 987 0 9 120 120 10.3001 127.742 2 46 987 10.3498 127.635 TS 47 987 14 272
1995294N05163 1995 84 WP MM ZACK 1995-10-27 18:00:00 TS 10.3250 126.975 55 985 tokyo main 141 93 OOOO__________ jtwc_wp WP281995 10.3000 126.900 60 0 10.3000 127.000 4 55 985 9 30 30 9 120 120 0 10.3000 127.000 3 48 985 10.4000 127.000 STS 50 985 13 274
1995294N05163 1995 84 WP MM ZACK 1995-10-27 21:00:00 TS 10.3954 126.329 main 86 49 PPPP__________ WP281995 10.3851 126.143 65 1 10.3771 126.407 4 55 985 9 30 30 9 120 120 10.3771 126.407 3 48 985 10.4423 126.357 STS 52 982 13 278
1995294N05163 1995 84 WP MM ZACK 1995-10-28 00:00:00 TS 10.5000 125.675 55 985 tokyo main 49 0 OOOO__________ jtwc_wp WP281995 10.5000 125.400 70 1 10.5000 125.800 4 55 985 9 30 30 9 120 120 0 10.5000 125.800 3 48 985 10.5000 125.700 STS 55 980 14 280
1995294N05163 1995 84 WP MM ZACK 1995-10-28 03:00:00 TS 10.6469 124.948 main 0 0 PPPP__________ WP281995 10.6572 124.778 75 1 10.6652 125.008 4 55 985 9 30 30 9 110 110 10.6652 125.008 3 48 985 10.5999 125.000 STS 55 980 15 281
1995294N05163 1995 84 WP MM ZACK 1995-10-28 06:00:00 TS 10.7750 124.225 55 985 tokyo main 21 0 OOOO__________ jtwc_wp WP281995 10.8000 124.200 80 1 10.8000 124.200 4 55 985 9 30 30 9 100 100 0 10.8000 124.200 3 48 985 10.7000 124.300 STS 55 980 14 277
1995294N05163 1995 84 WP MM ZACK 1995-10-28 09:00:00 TS 10.8054 123.572 main 0 0 PPPP__________ WP281995 10.8648 123.607 85 2 10.8073 123.520 4 52 987 9 9 90 90 10.8073 123.520 3 48 985 10.7423 123.642 STS 55 980 13 272
1995294N05163 1995 84 WP MM ZACK 1995-10-28 12:00:00 TS 10.8250 122.950 50 990 tokyo main 0 0 OOOO__________ jtwc_wp WP281995 10.9000 123.000 90 2 10.8000 122.900 4 50 990 0 9 80 80 0 10.8000 122.900 3 48 985 10.8000 123.000 STS 55 980 12 275
1995294N05163 1995 84 WP MM ZACK 1995-10-28 15:00:00 TS 10.9136 122.323 main 0 0 PPPP__________ WP281995 10.9424 122.365 82 1 10.8848 122.293 4 52 987 0 9 90 90 10.8848 122.293 3 53 982 10.9424 122.343 STS 55 980 12 279
1995294N05163 1995 84 WP MM ZACK 1995-10-28 18:00:00 TS 11.0250 121.700 55 985 tokyo main 31 31 OOOO__________ jtwc_wp WP281995 11.0000 121.700 75 1 11.0000 121.700 4 55 985 9 30 30 9 100 100 0 11.0000 121.700 3 58 980 11.1000 121.700 STS 55 980 12 280
1995294N05163 1995 84 WP MM ZACK 1995-10-28 21:00:00 TS 11.1267 121.075 main 93 93 PPPP__________ WP281995 11.1000 120.993 72 1 11.0998 121.107 4 55 985 9 30 30 9 100 100 11.0923 121.107 3 58 980 11.2148 121.092 STS 55 980 12 279
1995294N05163 1995 84 WP MM ZACK 1995-10-29 00:00:00 TS 11.2250 120.450 55 985 tokyo main 98 21 OOOO__________ jtwc_wp WP281995 11.2000 120.300 70 1 11.2000 120.500 4 55 985 9 30 30 9 100 100 0 11.2000 120.500 3 58 980 11.3000 120.500 STS 55 980 13 279
1995294N05163 1995 84 WP MM ZACK 1995-10-29 03:00:00 TS 11.3181 119.814 main 21 0 PPPP__________ WP281995 11.2573 119.685 70 1 11.3075 119.835 4 57 982 9 35 35 9 110 110 11.3500 119.835 3 58 980 11.3574 119.900 STS 55 980 12 278
1995294N05163 1995 84 WP MM ZACK 1995-10-29 06:00:00 TS 11.4000 119.200 60 980 tokyo main 31 31 OOOO__________ jtwc_wp WP281995 11.3000 119.100 70 1 11.4000 119.200 4 60 980 9 40 40 9 120 120 0 11.5000 119.200 3 58 980 11.4000 119.300 STS 55 980 12 276
1995294N05163 1995 84 WP MM ZACK 1995-10-29 09:00:00 TS 11.4474 118.635 main 90 90 PPPP__________ WP281995 11.3200 118.485 70 1 11.4347 118.685 4 62 977 9 50 50 9 140 140 11.5997 118.692 3 58 980 11.4350 118.677 STS 57 977 11 277
1995294N05163 1995 84 WP MM ZACK 1995-10-29 12:00:00 TS 11.5250 118.100 65 975 tokyo main 145 145 OOOO__________ jtwc_wp WP281995 11.4000 117.900 70 1 11.5000 118.200 5 65 975 9 60 60 9 160 160 0 11.7000 118.200 3 58 980 11.5000 118.100 STS 60 975 11 283
1995294N05163 1995 84 WP MM ZACK 1995-10-29 15:00:00 TS 11.6825 117.558 main 204 204 PPPP__________ WP281995 11.6199 117.378 72 1 11.6625 117.643 5 65 975 9 60 60 9 160 160 11.8276 117.592 3 58 980 11.6198 117.620 STS 60 975 11 290
1995294N05163 1995 84 WP MM ZACK 1995-10-29 18:00:00 TS 11.9000 117.050 65 975 tokyo main 262 262 OOOO__________ jtwc_wp WP281995 11.9000 116.900 75 1 11.9000 117.100 5 65 975 9 60 60 9 160 160 0 12.0000 117.000 3 58 980 11.8000 117.200 STS 60 975 11 296
1995294N05163 1995 84 WP MM ZACK 1995-10-29 21:00:00 TS 12.1399 116.588 main 321 321 PPPP__________ WP281995 12.1350 116.427 82 1 12.1849 116.620 5 67 972 9 60 60 9 160 160 12.2274 116.512 3 58 980 12.0124 116.792 STS 60 975 10 302
1995294N05163 1995 84 WP MM ZACK 1995-10-30 00:00:00 TS 12.4250 116.175 70 970 tokyo main 373 373 OOOO__________ jtwc_wp WP281995 12.4000 116.000 90 2 12.5000 116.200 5 70 970 9 60 60 9 160 160 0 12.5000 116.100 3 58 980 12.3000 116.400 STS 60 975 10 308
1995294N05163 1995 84 WP MM ZACK 1995-10-30 03:00:00 TS 12.7474 115.796 main 426 426 PPPP__________ WP281995 12.7349 115.627 97 3 12.7924 115.827 5 72 967 9 65 65 9 170 170 12.7849 115.727 3 61 977 12.6774 116.000 STS 62 972 10 314
1995294N05163 1995 84 WP MM ZACK 1995-10-30 06:00:00 TS 13.1000 115.450 75 965 tokyo main 474 474 OOOO__________ jtwc_wp WP281995 13.1000 115.300 105 3 13.1000 115.500 5 75 965 9 70 70 9 180 180 0 13.1000 115.400 4 64 975 13.1000 115.600 T 65 970 10 318
1995294N05163 1995 84 WP MM ZACK 1995-10-30 09:00:00 TS 13.4699 115.129 main 533 533 PPPP__________ WP281995 13.4649 115.000 112 3 13.4499 115.207 5 77 962 9 75 75 9 180 180 13.4499 115.107 4 66 972 13.5149 115.200 T 67 967 10 319
1995294N05163 1995 84 WP MM ZACK 1995-10-30 12:00:00 TS 13.8250 114.800 80 960 tokyo main 577 546 OOOO__________ jtwc_wp WP281995 13.8000 114.700 120 4 13.8000 114.900 5 80 960 9 80 80 9 180 180 0 13.8000 114.800 4 68 970 13.9000 114.800 T 70 965 10 315
1995294N05163 1995 84 WP MM ZACK 1995-10-30 15:00:00 TS 14.1462 114.427 main 546 510 PPPP__________ WP281995 14.0799 114.372 117 4 14.1300 114.515 5 82 957 9 80 80 9 180 180 14.1300 114.415 4 72 965 14.2449 114.407 T 70 965 9 307
1995294N05163 1995 84 WP MM ZACK 1995-10-30 18:00:00 TS 14.4000 114.025 85 955 tokyo main 510 470 OOOO__________ jtwc_wp WP281995 14.3000 114.000 115 4 14.4000 114.100 5 85 955 9 80 80 9 180 180 0 14.4000 114.000 4 77 960 14.5000 114.000 T 70 965 9 298
1995294N05163 1995 84 WP MM ZACK 1995-10-30 21:00:00 TS 14.5750 113.602 main 470 429 PPPP__________ WP281995 14.4800 113.558 115 4 14.5874 113.700 5 85 955 9 80 80 9 180 180 14.5874 113.600 4 77 960 14.6450 113.550 T 72 962 9 288
1995294N05163 1995 84 WP MM ZACK 1995-10-31 00:00:00 TS 14.6750 113.175 85 955 tokyo main 429 387 OOOO__________ jtwc_wp WP281995 14.6000 113.100 115 4 14.7000 113.300 5 85 955 9 80 80 9 180 180 0 14.7000 113.200 4 77 960 14.7000 113.100 T 75 960 8 281
1995294N05163 1995 84 WP MM ZACK 1995-10-31 03:00:00 TS 14.7312 112.767 main 387 345 PPPP__________ WP281995 14.6724 112.692 115 4 14.7724 112.900 5 87 952 9 80 80 9 180 180 14.7725 112.792 4 82 957 14.7074 112.685 T 77 957 8 276
1995294N05163 1995 84 WP MM ZACK 1995-10-31 06:00:00 TS 14.7500 112.375 90 950 tokyo main 348 307 OOOO__________ jtwc_wp WP281995 14.7000 112.300 115 4 14.8000 112.500 5 90 950 9 80 80 9 180 180 0 14.8000 112.400 5 87 955 14.7000 112.300 T 80 955 7 273
1995294N05163 1995 84 WP MM ZACK 1995-10-31 09:00:00 TS 14.7679 112.017 main 307 267 PPPP__________ WP281995 14.7074 111.907 112 3 14.8073 112.122 5 90 950 9 80 80 9 180 180 14.8072 112.072 5 87 955 14.7498 111.965 T 80 955 7 272
1995294N05163 1995 84 WP MM ZACK 1995-10-31 12:00:00 TS 14.7750 111.625 90 950 tokyo main 267 226 OOOO__________ jtwc_wp WP281995 14.7000 111.500 110 3 14.8000 111.700 5 90 950 9 80 80 9 180 180 0 14.8000 111.700 5 87 955 14.8000 111.600 T 80 955 9 270
1995294N05163 1995 84 WP MM ZACK 1995-10-31 15:00:00 TS 14.7732 111.129 main 215 161 PPPP__________ WP281995 14.6999 111.072 107 3 14.7926 111.157 5 87 952 9 80 80 9 180 180 14.7927 111.165 5 87 955 14.8075 111.122 T 77 957 10 270
1995294N05163 1995 84 WP MM ZACK 1995-10-31 18:00:00 TS 14.7750 110.600 85 955 tokyo main 161 118 OOOO__________ jtwc_wp WP281995 14.7000 110.600 105 3 14.8000 110.600 5 85 955 9 80 80 9 180 180 0 14.8000 110.600 5 87 955 14.8000 110.600 T 75 960 10 272
1995294N05163 1995 84 WP MM ZACK 1995-10-31 21:00:00 TS 14.8073 110.124 main 108 65 PPPP__________ WP281995 14.7000 110.065 102 3 14.8647 110.158 5 82 957 9 70 70 9 170 170 14.8647 110.158 5 82 957 14.7998 110.115 T 72 962 9 273
1995294N05163 1995 84 WP MM ZACK 1995-11-01 00:00:00 TS 14.8250 109.625 80 960 tokyo main 54 10 OOOO__________ jtwc_wp WP281995 14.7000 109.500 100 3 14.9000 109.700 5 80 960 9 60 60 9 160 160 0 14.9000 109.700 4 77 960 14.8000 109.600 T 70 965 10 269
1995294N05163 1995 84 WP MM ZACK 1995-11-01 03:00:00 TS 14.7897 109.079 main 10 0 PPPP__________ WP281995 14.7071 108.980 85 2 14.8149 109.130 5 65 972 9 9 140 140 14.8149 109.130 4 67 970 14.8219 109.075 T 65 970 11 265
1995294N05163 1995 84 WP MM ZACK 1995-11-01 06:00:00 TS 14.7250 108.450 50 985 tokyo main 0 0 OOOO__________ jtwc_wp WP281995 14.7000 108.400 70 1 14.7000 108.500 4 50 985 0 9 120 120 0 14.7000 108.500 3 58 980 14.8000 108.400 STS 60 975 13 264
1995294N05163 1995 84 WP MM ZACK 1995-11-01 09:00:00 TS 14.6539 107.699 main 0 0 PPPP__________ WP281995 14.6500 107.680 57 0 14.6499 107.858 4 42 990 0 9 110 110 14.6424 107.858 3 48 985 14.6734 107.400 STS 52 982 15 264
1995294N05163 1995 84 WP MM ZACK 1995-11-01 12:00:00 TS 14.5786 106.943 35 996 tokyo main 0 0 OOOO__________ jtwc_wp WP281995 14.6000 106.900 45 0 14.6000 107.200 3 35 996 0 9 100 100 0 14.6000 107.200 2 38 990 14.5000 106.400 TS 45 990 14 264
1995294N05163 1995 84 WP MM ZACK 1995-11-01 15:00:00 TS 14.5157 106.267 main 0 0 PPPP__________ WP281995 14.5997 106.158 37 0 14.5000 106.520 3 999 0 9 14.5528 106.547 2 33 995 14.3420 105.700 TS 37 995 13 266
1995294N05163 1995 84 WP MM ZACK 1995-11-01 18:00:00 TS 14.4778 105.600 1002 tokyo main 0 0 OOOO__________ jtwc_wp WP281995 14.6000 105.400 30 -1 14.4000 105.900 2 1002 0 0 0 14.5000 105.900 1 29 1000 14.2000 105.200 TD 30 1000 13 268
1995294N05163 1995 84 WP MM ZACK 1995-11-01 21:00:00 TS 14.4790 104.875 main 0 0 PP____________ WP281995 14.5498 104.607 27 -1 14.3375 105.410 2 1003 0 0 1 TD 15 269
1995294N05163 1995 84 WP MM ZACK 1995-11-02 00:00:00 TS 14.4500 104.100 1004 tokyo main 0 0 OO____________ jtwc_wp WP281995 14.5000 103.800 25 -1 14.3000 105.000 2 1004 0 0 0 18 270
1995294N05163 1995 84 WP MM ZACK 1995-11-02 03:00:00 NR 14.4880 102.998 main 0 0 P_____________ WP281995 14.4880 102.998 20 -1 2 0 0 18 272
1995294N05163 1995 84 WP MM ZACK 1995-11-02 06:00:00 NR 14.5000 102.200 main 0 O_____________ jtwc_wp WP281995 14.5000 102.200 15 -1 15 271

Digital Typhoon Data and Search

About IBTrACS Database

This database is a web-friendly format of International Best Track Archive for Climate Stewardship (IBTrACS), a global best track data archive curated by NOAA dating back to 1842.

Updated: 2021-10-27